createdAt,value
2024-04-25T00:00:22.223Z,18.1
2024-04-25T00:05:24.444Z,18.1
2024-04-25T00:10:26.583Z,18.1
2024-04-25T00:15:28.704Z,18.1
2024-04-25T00:20:30.995Z,18.1
2024-04-25T00:25:33.145Z,18.1
2024-04-25T00:30:35.374Z,18.1
2024-04-25T00:35:37.525Z,18
2024-04-25T00:40:39.691Z,18
2024-04-25T00:45:41.965Z,18
2024-04-25T00:50:44.231Z,18
2024-04-25T00:55:46.355Z,17.9
2024-04-25T01:00:48.635Z,17.9
2024-04-25T01:05:50.767Z,17.9
2024-04-25T01:10:53.422Z,17.9
2024-04-25T01:15:55.357Z,17.9
2024-04-25T01:20:57.505Z,17.9
2024-04-25T01:25:59.697Z,17.9
2024-04-25T01:31:01.794Z,17.9
2024-04-25T01:36:04.052Z,17.9
2024-04-25T01:41:06.262Z,17.8
2024-04-25T01:46:08.556Z,17.8
2024-04-25T01:51:10.797Z,17.8
2024-04-25T01:56:13.002Z,17.8
2024-04-25T02:01:15.110Z,17.8
2024-04-25T02:06:17.387Z,17.8
2024-04-25T02:11:19.667Z,17.8
2024-04-25T02:16:21.806Z,17.8
2024-04-25T02:21:23.992Z,17.8
2024-04-25T02:26:26.183Z,17.8
2024-04-25T02:31:28.279Z,17.7
2024-04-25T02:36:30.582Z,17.7
2024-04-25T02:41:32.788Z,17.7
2024-04-25T02:46:35.051Z,17.7
2024-04-25T02:51:37.329Z,17.7
2024-04-25T02:56:39.474Z,17.7
2024-04-25T03:01:41.697Z,17.7
2024-04-25T03:06:43.853Z,17.7
2024-04-25T03:11:46.065Z,17.6
2024-04-25T03:16:48.129Z,17.6
2024-04-25T03:21:50.260Z,17.6
2024-04-25T03:26:52.569Z,17.6
2024-04-25T03:31:54.816Z,17.6
2024-04-25T03:36:57.058Z,17.6
2024-04-25T03:41:59.245Z,17.6
2024-04-25T03:47:01.537Z,17.6
2024-04-25T03:52:03.764Z,17.5
2024-04-25T03:57:05.960Z,17.5
2024-04-25T04:02:08.185Z,17.5
2024-04-25T04:07:10.300Z,17.5
2024-04-25T04:12:12.618Z,17.5
2024-04-25T04:17:14.776Z,17.5
2024-04-25T04:22:17.187Z,17.4
2024-04-25T04:27:19.241Z,17.5
2024-04-25T04:32:21.636Z,17.5
2024-04-25T04:37:23.873Z,17.4
2024-04-25T04:42:26.045Z,17.4
2024-04-25T04:47:28.425Z,17.4
2024-04-25T04:52:30.440Z,17.4
2024-04-25T04:57:32.610Z,17.4
2024-04-25T05:02:34.953Z,17.4
2024-04-25T05:07:37.170Z,17.4
2024-04-25T05:12:39.306Z,17.4
2024-04-25T05:17:41.867Z,17.3
2024-04-25T05:22:43.713Z,17.3
2024-04-25T05:27:45.864Z,17.3
2024-04-25T05:32:48.049Z,17.3
2024-04-25T05:37:50.141Z,17.3
2024-04-25T05:42:52.493Z,17.2
2024-04-25T05:47:54.796Z,17.2
2024-04-25T05:52:56.824Z,17.2
2024-04-25T05:57:59.074Z,17.2
2024-04-25T06:03:03.957Z,17.2
2024-04-25T06:08:03.352Z,17.2
2024-04-25T06:13:05.671Z,17.2
2024-04-25T06:18:07.738Z,17.2
2024-04-25T06:23:09.994Z,17.1
2024-04-25T06:28:12.133Z,17.1
2024-04-25T06:33:14.503Z,17.1
2024-04-25T06:38:16.779Z,17.1
2024-04-25T06:43:18.853Z,17.1
2024-04-25T06:48:21.146Z,17.1
2024-04-25T06:53:23.267Z,17.1
2024-04-25T06:58:25.370Z,17.1
2024-04-25T07:03:27.518Z,17.1
2024-04-25T07:08:30.705Z,17.1
2024-04-25T07:13:32.845Z,17.1
2024-04-25T07:18:35.020Z,17
2024-04-25T07:23:37.271Z,17
2024-04-25T07:28:39.440Z,17
2024-04-25T07:33:41.856Z,17
2024-04-25T07:38:44.112Z,17
2024-04-25T07:43:46.216Z,17
2024-04-25T07:48:48.611Z,17
2024-04-25T07:53:50.666Z,17
2024-04-25T07:58:52.808Z,17
2024-04-25T08:03:55.012Z,17
2024-04-25T08:08:57.176Z,17
2024-04-25T08:14:01.090Z,17
2024-04-25T08:19:01.402Z,16.9
2024-04-25T08:24:03.538Z,16.9
2024-04-25T08:29:05.699Z,16.9
2024-04-25T08:34:08.063Z,16.9
2024-04-25T08:39:10.046Z,16.9
2024-04-25T08:44:13.577Z,16.9
2024-04-25T08:49:14.327Z,16.9
2024-04-25T08:54:16.496Z,16.9
2024-04-25T08:59:18.768Z,16.9
2024-04-25T09:04:20.880Z,16.9
2024-04-25T09:09:23.171Z,16.9
2024-04-25T09:14:25.453Z,16.9
2024-04-25T09:19:27.629Z,16.9
2024-04-25T09:24:29.928Z,16.9
2024-04-25T09:29:32.128Z,16.9
2024-04-25T09:34:34.226Z,16.9
2024-04-25T09:39:37.655Z,16.9
2024-04-25T09:44:38.698Z,16.9
2024-04-25T09:49:40.885Z,16.8
2024-04-25T09:54:43.043Z,16.8
2024-04-25T09:59:45.391Z,16.8
2024-04-25T10:04:47.325Z,16.8
2024-04-25T10:09:49.551Z,16.8
2024-04-25T10:14:51.868Z,16.8
2024-04-25T10:19:53.917Z,16.8
2024-04-25T10:24:56.070Z,16.8
2024-04-25T10:29:58.332Z,16.8
2024-04-25T10:35:00.476Z,16.8
2024-04-25T10:40:02.614Z,16.8
2024-04-25T10:45:04.878Z,16.8
2024-04-25T10:50:07.081Z,16.8
2024-04-25T10:55:09.225Z,16.8
2024-04-25T11:00:11.443Z,16.8
2024-04-25T11:05:13.563Z,16.9
2024-04-25T11:10:15.796Z,16.9
2024-04-25T11:15:18.049Z,16.9
2024-04-25T11:20:20.372Z,16.9
2024-04-25T11:25:22.502Z,16.9
2024-04-25T11:30:24.679Z,16.9
2024-04-25T11:35:27.033Z,16.9
2024-04-25T11:40:29.151Z,16.9
2024-04-25T11:45:33.550Z,16.9
2024-04-25T11:50:33.789Z,17
2024-04-25T11:55:35.959Z,17
2024-04-25T12:00:38.172Z,17
2024-04-25T12:05:40.286Z,17
2024-04-25T12:10:42.415Z,17
2024-04-25T12:15:44.567Z,17.1
2024-04-25T12:20:46.730Z,17.1
2024-04-25T12:25:48.956Z,17.1
2024-04-25T12:30:51.106Z,17.1
2024-04-25T12:35:53.246Z,17.1
2024-04-25T12:40:55.358Z,17.2
2024-04-25T12:50:59.773Z,17.3
2024-04-25T12:56:01.957Z,17.3
2024-04-25T13:01:04.201Z,17.3
2024-04-25T13:06:06.409Z,17.3
2024-04-25T13:11:08.596Z,17.3
2024-04-25T13:16:10.715Z,17.3
2024-04-25T13:21:12.881Z,17.3
2024-04-25T13:26:15.201Z,17.3
2024-04-25T13:31:17.351Z,17.3
2024-04-25T13:36:19.477Z,17.3
2024-04-25T13:41:21.646Z,17.3
2024-04-25T13:46:23.805Z,17.3
2024-04-25T13:51:25.925Z,17.3
2024-04-25T13:56:28.234Z,17.3
2024-04-25T14:01:30.394Z,17.2
2024-04-25T14:06:32.482Z,17.3
2024-04-25T14:11:34.796Z,17.3
2024-04-25T14:16:36.978Z,17.2
2024-04-25T14:21:39.097Z,17.2
2024-04-25T14:26:41.292Z,17.2
2024-04-25T14:31:43.418Z,17.2
2024-04-25T14:36:45.694Z,17.2
2024-04-25T14:41:47.913Z,17.2
2024-04-25T14:46:50.313Z,17.2
2024-04-25T14:51:52.486Z,17.2
2024-04-25T14:56:54.634Z,17.2
2024-04-25T15:01:56.951Z,17.1
2024-04-25T15:06:59.051Z,17.1
2024-04-25T15:12:01.297Z,17.1
2024-04-25T15:17:03.382Z,17.1
2024-04-25T15:22:05.468Z,17.1
2024-04-25T15:27:07.606Z,17.1
2024-04-25T15:32:09.922Z,17.1
2024-04-25T15:37:12.008Z,17.1
2024-04-25T15:42:14.151Z,17.1
2024-04-25T15:47:16.354Z,17.1
2024-04-25T15:52:18.427Z,17.1
2024-04-25T15:57:20.789Z,17.1
2024-04-25T16:02:23.071Z,17.1
2024-04-25T16:07:25.093Z,17.1
2024-04-25T16:12:27.342Z,17.1
2024-04-25T16:17:29.736Z,17.1
2024-04-25T16:22:31.757Z,17.1
2024-04-25T16:27:33.894Z,17.1
2024-04-25T16:32:36.180Z,17.1
2024-04-25T16:37:38.329Z,17
2024-04-25T16:42:40.472Z,17
2024-04-25T16:47:42.850Z,17
2024-04-25T16:52:45.977Z,17
2024-04-25T16:57:49.781Z,17
2024-04-25T17:02:50.539Z,17
2024-04-25T17:07:52.620Z,17
2024-04-25T17:12:54.752Z,17
2024-04-25T17:17:56.987Z,17
2024-04-25T17:22:59.028Z,17
2024-04-25T17:28:01.244Z,17
2024-04-25T17:33:03.463Z,17
2024-04-25T17:38:05.528Z,17
2024-04-25T17:43:07.785Z,17
2024-04-25T17:48:10.002Z,17
2024-04-25T17:53:12.069Z,17
2024-04-25T17:58:14.213Z,17
2024-04-25T18:03:16.378Z,17
2024-04-25T18:08:18.586Z,17
2024-04-25T18:13:20.734Z,17
2024-04-25T18:18:23.155Z,17
2024-04-25T18:23:25.362Z,17
2024-04-25T18:28:27.517Z,17
2024-04-25T18:33:29.830Z,17
2024-04-25T18:38:32.041Z,17
2024-04-25T18:43:34.125Z,17
2024-04-25T18:48:36.476Z,17
2024-04-25T18:53:38.675Z,17
2024-04-25T18:58:40.807Z,16.9
2024-04-25T19:03:43.080Z,16.9
2024-04-25T19:08:45.390Z,16.9
2024-04-25T19:13:47.510Z,16.9
2024-04-25T19:18:49.851Z,16.9
2024-04-25T19:23:52.175Z,16.9
2024-04-25T19:28:54.291Z,16.9
2024-04-25T19:33:56.678Z,16.9
2024-04-25T19:38:58.790Z,16.9
2024-04-25T19:44:00.920Z,16.9
2024-04-25T19:49:03.268Z,16.9
2024-04-25T19:54:05.371Z,16.9
2024-04-25T19:59:07.494Z,16.9
2024-04-25T20:04:09.668Z,16.9
2024-04-25T20:09:11.770Z,16.9
2024-04-25T20:14:14.014Z,16.9
2024-04-25T20:19:16.201Z,16.9
2024-04-25T20:24:18.299Z,16.9
2024-04-25T20:29:20.502Z,16.9
2024-04-25T20:34:22.646Z,16.9
2024-04-25T20:39:24.816Z,16.9
2024-04-25T20:44:26.979Z,16.9
2024-04-25T20:49:29.317Z,16.9
2024-04-25T20:54:31.518Z,16.9
2024-04-25T20:59:33.671Z,16.9
2024-04-25T21:04:36.020Z,16.9
2024-04-25T21:09:38.218Z,16.9
2024-04-25T21:14:40.403Z,16.8
2024-04-25T21:19:42.740Z,16.9
2024-04-25T21:24:44.888Z,16.9
2024-04-25T21:29:47.047Z,16.8
2024-04-25T21:34:49.250Z,16.8
2024-04-25T21:39:51.586Z,16.8
2024-04-25T21:44:53.806Z,16.8
2024-04-25T21:49:55.996Z,16.8
2024-04-25T21:54:58.284Z,16.8
2024-04-25T22:00:00.545Z,16.8
2024-04-25T22:05:02.754Z,16.8
2024-04-25T22:10:04.930Z,16.8
2024-04-25T22:15:07.076Z,16.8
2024-04-25T22:20:09.237Z,16.8
2024-04-25T22:25:11.512Z,16.7
2024-04-25T22:30:13.676Z,16.7
2024-04-25T22:35:16.002Z,16.7
2024-04-25T22:40:18.244Z,16.7
2024-04-25T22:45:24.551Z,16.7
2024-04-25T22:50:22.675Z,16.7
2024-04-25T22:55:24.919Z,16.7
2024-04-25T23:00:27.125Z,16.7
2024-04-25T23:05:29.285Z,16.7
2024-04-25T23:10:32.325Z,16.7
2024-04-25T23:15:33.739Z,16.7
2024-04-25T23:20:35.893Z,16.7
2024-04-25T23:25:38.171Z,16.7
2024-04-25T23:30:40.329Z,16.7
2024-04-25T23:35:42.505Z,16.7
2024-04-25T23:40:44.679Z,16.7
2024-04-25T23:45:46.843Z,16.7
2024-04-25T23:50:49.131Z,16.7
2024-04-25T23:55:51.210Z,16.7
